METAR Data
IDs: Format: Raw Decoded Include TAF

Data at: 1710 UTC 03 Dec 2021

EGLL 031650Z AUTO 28003KT 9999 FEW015 BKN040 09/07 Q1001 NOSIG